createdAt,value
2018-01-21T00:02:15.064Z,7.20
2018-01-21T00:04:43.350Z,7.10
2018-01-21T00:07:11.657Z,7.20
2018-01-21T00:09:39.187Z,7.20
2018-01-21T00:12:07.511Z,7.40
2018-01-21T00:14:35.034Z,7.40
2018-01-21T00:17:02.595Z,7.40
2018-01-21T00:19:30.110Z,7.40
2018-01-21T00:21:58.389Z,7.50
2018-01-21T00:24:25.937Z,7.50
2018-01-21T00:26:53.458Z,7.60
2018-01-21T00:29:21.021Z,7.60
2018-01-21T00:31:48.549Z,7.70
2018-01-21T00:34:16.113Z,7.60
2018-01-21T00:36:43.651Z,7.50
2018-01-21T00:39:11.967Z,7.40
2018-01-21T00:41:40.443Z,7.40
2018-01-21T00:44:08.943Z,7.30
2018-01-21T00:46:36.504Z,7.20
2018-01-21T00:49:04.208Z,7.20
2018-01-21T00:51:31.755Z,7.10
2018-01-21T00:53:59.283Z,7.10
2018-01-21T00:56:26.819Z,7.10
2018-01-21T00:58:54.374Z,7.10
2018-01-21T01:01:21.895Z,7.10
2018-01-21T01:03:50.443Z,7.00
2018-01-21T01:06:17.969Z,7.10
2018-01-21T01:08:45.512Z,7.20
2018-01-21T01:11:13.810Z,7.20
2018-01-21T01:13:41.331Z,7.20
2018-01-21T01:16:08.887Z,7.20
2018-01-21T01:18:36.406Z,7.00
2018-01-21T01:21:03.946Z,6.90
2018-01-21T01:23:31.463Z,6.80
2018-01-21T01:25:59.015Z,6.50
2018-01-21T01:28:26.534Z,6.40
2018-01-21T01:30:54.074Z,6.20
2018-01-21T01:33:21.594Z,6.10
2018-01-21T01:35:49.114Z,6.00
2018-01-21T01:38:17.614Z,5.90
2018-01-21T01:40:45.141Z,5.80
2018-01-21T01:43:12.684Z,5.60
2018-01-21T01:45:40.246Z,5.40
2018-01-21T01:48:09.723Z,5.50
2018-01-21T01:50:37.248Z,5.40
2018-01-21T01:53:04.770Z,5.40
2018-01-21T01:55:34.339Z,5.30
2018-01-21T01:58:01.859Z,5.50
2018-01-21T02:00:29.410Z,5.50
2018-01-21T02:02:56.934Z,5.80
2018-01-21T02:05:24.482Z,6.00
2018-01-21T02:07:52.977Z,6.10
2018-01-21T02:10:22.220Z,6.30
2018-01-21T02:12:49.758Z,6.30
2018-01-21T02:15:17.274Z,6.30
2018-01-21T02:17:44.813Z,6.20
2018-01-21T02:20:12.327Z,6.30
2018-01-21T02:22:39.870Z,6.40
2018-01-21T02:25:07.384Z,6.40
2018-01-21T02:27:34.914Z,6.30
2018-01-21T02:30:02.463Z,6.20
2018-01-21T02:32:29.977Z,6.00
2018-01-21T02:34:57.521Z,6.00
2018-01-21T02:37:25.039Z,6.20
2018-01-21T02:39:52.581Z,6.30
2018-01-21T02:42:20.871Z,6.50
2018-01-21T02:44:48.416Z,6.50
2018-01-21T02:47:16.708Z,6.40
2018-01-21T02:49:44.227Z,6.40
2018-01-21T02:52:11.786Z,6.50
2018-01-21T02:54:39.302Z,6.50
2018-01-21T02:57:06.859Z,6.50
2018-01-21T02:59:34.387Z,6.40
2018-01-21T03:02:01.946Z,6.50
2018-01-21T03:04:29.472Z,6.60
2018-01-21T03:06:57.038Z,6.50
2018-01-21T03:09:24.567Z,6.60
2018-01-21T03:11:52.084Z,6.50
2018-01-21T03:14:19.636Z,6.50
2018-01-21T03:16:47.918Z,6.30
2018-01-21T03:19:15.473Z,6.20
2018-01-21T03:21:43.952Z,6.30
2018-01-21T03:24:12.275Z,6.30
2018-01-21T03:26:39.796Z,6.30
2018-01-21T03:29:07.319Z,6.30
2018-01-21T03:31:34.884Z,6.40
2018-01-21T03:34:02.799Z,6.40
2018-01-21T03:36:30.342Z,6.30
2018-01-21T03:38:57.856Z,6.30
2018-01-21T03:41:25.404Z,6.40
2018-01-21T03:43:52.921Z,6.40
2018-01-21T03:46:20.442Z,6.50
2018-01-21T03:48:47.994Z,6.50
2018-01-21T03:51:15.507Z,6.50
2018-01-21T03:53:43.061Z,6.40
2018-01-21T03:56:10.583Z,6.30
2018-01-21T03:58:38.131Z,6.30
2018-01-21T04:01:05.659Z,6.30
2018-01-21T04:03:33.203Z,6.30
2018-01-21T04:06:00.723Z,6.30
2018-01-21T04:08:29.016Z,6.40
2018-01-21T04:10:56.575Z,6.40
2018-01-21T04:13:24.098Z,6.40
2018-01-21T04:15:51.651Z,6.50
2018-01-21T04:18:19.175Z,6.60
2018-01-21T04:20:46.722Z,6.60
2018-01-21T04:23:15.187Z,6.60
2018-01-21T04:25:43.658Z,6.60
2018-01-21T04:28:11.983Z,6.50
2018-01-21T04:30:39.506Z,6.40
2018-01-21T04:33:07.051Z,6.50
2018-01-21T04:35:35.342Z,6.60
2018-01-21T04:38:02.897Z,6.60
2018-01-21T04:40:30.436Z,6.50
2018-01-21T04:42:57.950Z,6.50
2018-01-21T04:45:25.501Z,6.50
2018-01-21T04:47:53.034Z,6.20
2018-01-21T04:50:20.586Z,6.30
2018-01-21T04:52:48.106Z,6.30
2018-01-21T04:55:15.659Z,6.20
2018-01-21T04:57:43.182Z,6.20
2018-01-21T05:00:10.706Z,6.10
2018-01-21T05:02:40.998Z,6.10
2018-01-21T05:05:08.522Z,6.10
2018-01-21T05:07:36.066Z,6.10
2018-01-21T05:10:03.584Z,6.00
2018-01-21T05:12:31.135Z,6.10
2018-01-21T05:14:58.655Z,5.90
2018-01-21T05:17:28.180Z,5.60
2018-01-21T05:19:55.694Z,5.50
2018-01-21T05:22:23.983Z,5.30
2018-01-21T05:24:51.531Z,5.30
2018-01-21T05:27:19.813Z,5.10
2018-01-21T05:29:48.351Z,5.10
2018-01-21T05:32:16.656Z,5.20
2018-01-21T05:34:44.220Z,5.20
2018-01-21T05:37:13.479Z,5.30
2018-01-21T05:39:41.011Z,5.30
2018-01-21T05:42:08.561Z,5.30
2018-01-21T05:44:36.084Z,5.30
2018-01-21T05:47:05.499Z,5.00
2018-01-21T05:49:33.031Z,5.00
2018-01-21T05:52:01.507Z,5.00
2018-01-21T05:54:29.030Z,5.00
2018-01-21T05:56:56.598Z,5.10
2018-01-21T05:59:24.123Z,5.10
2018-01-21T06:01:51.642Z,5.20
2018-01-21T06:04:19.959Z,4.70
2018-01-21T06:06:47.494Z,4.60
2018-01-21T06:09:17.791Z,4.60
2018-01-21T06:11:45.311Z,4.60
2018-01-21T06:14:12.856Z,4.50
2018-01-21T06:16:40.379Z,4.70
2018-01-21T06:19:07.931Z,4.60
2018-01-21T06:21:35.451Z,4.70
2018-01-21T06:24:02.983Z,4.60
2018-01-21T06:26:30.535Z,4.70
2018-01-21T06:28:58.819Z,4.70
2018-01-21T06:31:27.127Z,4.50
2018-01-21T06:33:54.656Z,4.50
2018-01-21T06:36:23.161Z,4.30
2018-01-21T06:38:50.686Z,4.10
2018-01-21T06:41:18.226Z,4.00
2018-01-21T06:43:45.751Z,4.00
2018-01-21T06:46:13.277Z,3.90
2018-01-21T06:48:40.830Z,4.20
2018-01-21T06:51:08.379Z,4.20
2018-01-21T06:53:36.689Z,3.90
2018-01-21T06:56:04.219Z,3.90
2018-01-21T06:58:32.526Z,3.70
2018-01-21T07:01:00.107Z,3.60
2018-01-21T07:03:27.656Z,3.70
2018-01-21T07:05:55.171Z,3.70
2018-01-21T07:08:23.485Z,3.60
2018-01-21T07:10:51.007Z,3.60
2018-01-21T07:13:18.550Z,3.80
2018-01-21T07:15:46.078Z,3.80
2018-01-21T07:18:13.592Z,3.70
2018-01-21T07:20:41.135Z,3.80
2018-01-21T07:23:09.423Z,3.80
2018-01-21T07:25:36.972Z,3.80
2018-01-21T07:28:05.247Z,4.10
2018-01-21T07:30:33.559Z,4.10
2018-01-21T07:33:01.079Z,4.00
2018-01-21T07:35:28.639Z,4.00
2018-01-21T07:37:56.158Z,4.10
2018-01-21T07:40:23.682Z,4.20
2018-01-21T07:42:51.219Z,4.00
2018-01-21T07:45:19.494Z,3.90
2018-01-21T07:47:47.047Z,3.90
2018-01-21T07:50:15.336Z,4.20
2018-01-21T07:52:43.649Z,4.30
2018-01-21T07:55:11.226Z,4.20
2018-01-21T07:57:39.687Z,4.30
2018-01-21T08:00:07.251Z,4.50
2018-01-21T08:02:34.778Z,4.30
2018-01-21T08:05:02.326Z,4.40
2018-01-21T08:07:30.621Z,4.00
2018-01-21T08:10:00.113Z,4.00
2018-01-21T08:12:27.635Z,4.00
2018-01-21T08:14:55.188Z,4.20
2018-01-21T08:17:22.714Z,4.10
2018-01-21T08:19:50.244Z,4.10
2018-01-21T08:22:17.786Z,4.30
2018-01-21T08:24:45.307Z,4.30
2018-01-21T08:27:12.878Z,4.50
2018-01-21T08:29:41.158Z,4.60
2018-01-21T08:32:08.721Z,4.60
2018-01-21T08:34:41.848Z,4.70
2018-01-21T08:37:15.063Z,4.70
2018-01-21T08:39:48.196Z,4.70
2018-01-21T08:42:21.447Z,4.70
2018-01-21T08:44:48.970Z,4.60
2018-01-21T08:47:19.238Z,4.50
2018-01-21T08:49:46.756Z,4.50
2018-01-21T08:52:17.020Z,4.10
2018-01-21T08:54:44.552Z,4.00
2018-01-21T08:57:12.070Z,3.90
2018-01-21T08:59:39.624Z,4.00
2018-01-21T09:02:07.163Z,4.10
2018-01-21T09:04:34.702Z,4.10
2018-01-21T09:07:02.235Z,3.90
2018-01-21T09:09:29.782Z,4.10
2018-01-21T09:11:58.095Z,4.00
2018-01-21T09:14:25.646Z,4.00
2018-01-21T09:16:53.169Z,4.10
2018-01-21T09:19:20.768Z,3.70
2018-01-21T09:21:49.247Z,3.80
2018-01-21T09:24:16.802Z,3.90
2018-01-21T09:26:44.318Z,3.90
2018-01-21T09:29:12.608Z,4.00
2018-01-21T09:31:40.166Z,4.00
2018-01-21T09:34:08.450Z,4.40
2018-01-21T09:36:36.961Z,4.40
2018-01-21T09:39:04.481Z,4.40
2018-01-21T09:41:32.218Z,4.60
2018-01-21T09:43:59.730Z,4.30
2018-01-21T09:46:27.274Z,4.20
2018-01-21T09:48:54.791Z,4.10
2018-01-21T09:51:23.134Z,4.10
2018-01-21T09:53:50.662Z,4.00
2018-01-21T09:56:18.958Z,4.20
2018-01-21T09:58:48.455Z,4.20
2018-01-21T10:01:15.972Z,4.60
2018-01-21T10:03:43.520Z,4.70
2018-01-21T10:06:11.047Z,4.80
2018-01-21T10:08:38.623Z,4.60
2018-01-21T10:11:06.138Z,4.60
2018-01-21T10:13:33.904Z,4.80
2018-01-21T10:16:01.448Z,4.70
2018-01-21T10:18:29.728Z,5.00
2018-01-21T10:20:58.048Z,5.30
2018-01-21T10:23:25.631Z,5.20
2018-01-21T10:25:53.188Z,4.90
2018-01-21T10:28:20.710Z,4.80
2018-01-21T10:30:49.028Z,4.20
2018-01-21T10:33:16.560Z,4.30
2018-01-21T10:35:44.119Z,4.40
2018-01-21T10:38:11.654Z,4.40
2018-01-21T10:40:40.120Z,4.40
2018-01-21T10:43:07.671Z,4.60
2018-01-21T10:45:35.190Z,4.50
2018-01-21T10:48:03.732Z,4.50
2018-01-21T10:50:31.367Z,4.60
2018-01-21T10:52:59.683Z,4.90
2018-01-21T10:55:27.447Z,4.90
2018-01-21T10:57:55.033Z,4.90
2018-01-21T11:00:22.566Z,4.80
2018-01-21T11:02:50.092Z,5.00
2018-01-21T11:05:17.639Z,5.00
2018-01-21T11:07:45.164Z,5.00
2018-01-21T11:10:12.719Z,5.00
2018-01-21T11:12:40.234Z,5.30
2018-01-21T11:15:08.554Z,5.50
2018-01-21T11:17:36.071Z,5.50
2018-01-21T11:20:04.411Z,5.80
2018-01-21T11:22:31.955Z,5.80
2018-01-21T11:24:59.498Z,6.00
2018-01-21T11:27:27.025Z,6.10
2018-01-21T11:29:54.546Z,6.10
2018-01-21T11:32:22.087Z,6.00
2018-01-21T11:34:49.604Z,5.70
2018-01-21T11:37:17.163Z,5.50
2018-01-21T11:39:45.649Z,5.60
2018-01-21T11:42:13.233Z,5.90
2018-01-21T11:44:40.860Z,5.80
2018-01-21T11:47:10.778Z,6.10
2018-01-21T11:49:35.947Z,6.40
2018-01-21T11:52:03.469Z,6.60
2018-01-21T11:54:31.012Z,6.60
2018-01-21T11:56:59.535Z,6.60
2018-01-21T11:59:27.082Z,6.40
2018-01-21T12:01:55.382Z,6.00
2018-01-21T12:04:22.951Z,5.80
2018-01-21T12:06:51.271Z,6.10
2018-01-21T12:09:19.072Z,6.10
2018-01-21T12:11:48.335Z,5.90
2018-01-21T12:14:15.861Z,5.90
2018-01-21T12:16:44.174Z,5.60
2018-01-21T12:19:11.695Z,5.60
2018-01-21T12:21:40.015Z,5.40
2018-01-21T12:24:08.527Z,5.40
2018-01-21T12:26:36.082Z,5.50
2018-01-21T12:29:03.618Z,5.80
2018-01-21T12:31:31.166Z,6.10
2018-01-21T12:33:58.724Z,6.00
2018-01-21T12:36:26.250Z,6.00
2018-01-21T12:38:54.760Z,6.10
2018-01-21T12:41:22.284Z,5.90
2018-01-21T12:43:49.836Z,6.30
2018-01-21T12:46:17.366Z,6.60
2018-01-21T12:48:44.910Z,6.70
2018-01-21T12:51:12.483Z,6.70
2018-01-21T12:53:40.017Z,6.50
2018-01-21T12:56:07.568Z,6.70
2018-01-21T12:58:35.095Z,6.80
2018-01-21T13:01:03.415Z,6.60
2018-01-21T13:03:30.927Z,6.60
2018-01-21T13:06:00.234Z,5.90
2018-01-21T13:08:28.525Z,5.90
2018-01-21T13:10:56.085Z,5.90
2018-01-21T13:13:23.607Z,5.70
2018-01-21T13:15:51.925Z,5.80
2018-01-21T13:18:19.509Z,5.90
2018-01-21T13:20:48.030Z,6.10
2018-01-21T13:23:15.559Z,6.00
2018-01-21T13:25:43.094Z,5.70
2018-01-21T13:28:10.651Z,5.80
2018-01-21T13:30:38.222Z,6.10
2018-01-21T13:33:05.772Z,6.40
2018-01-21T13:35:33.291Z,6.60
2018-01-21T13:38:01.616Z,6.90
2018-01-21T13:40:29.134Z,6.80
2018-01-21T13:42:57.476Z,7.10
2018-01-21T13:45:29.590Z,7.10
2018-01-21T13:47:57.148Z,7.10
2018-01-21T13:50:25.731Z,7.20
2018-01-21T13:52:53.283Z,7.20
2018-01-21T13:55:21.590Z,7.10
2018-01-21T13:57:49.107Z,7.10
2018-01-21T14:00:17.415Z,7.00
2018-01-21T14:02:44.927Z,7.00
2018-01-21T14:05:12.470Z,7.10
2018-01-21T14:07:39.997Z,7.10
2018-01-21T14:10:07.531Z,7.20
2018-01-21T14:12:35.086Z,7.20
2018-01-21T14:15:02.640Z,7.10
2018-01-21T14:17:30.959Z,7.00
2018-01-21T14:19:58.480Z,7.00
2018-01-21T14:22:26.035Z,7.10
2018-01-21T14:24:54.370Z,7.10
2018-01-21T14:27:28.505Z,7.00
2018-01-21T14:30:05.352Z,7.10
2018-01-21T14:32:32.959Z,7.10
2018-01-21T14:35:01.302Z,6.70
2018-01-21T14:37:28.849Z,6.70
2018-01-21T14:39:56.443Z,6.30
2018-01-21T14:42:24.967Z,6.20
2018-01-21T14:44:52.570Z,6.00
2018-01-21T14:47:20.128Z,5.50
2018-01-21T14:49:47.683Z,5.50
2018-01-21T14:52:15.244Z,5.50
2018-01-21T14:54:42.853Z,5.70
2018-01-21T14:57:11.230Z,5.90
2018-01-21T14:59:39.744Z,5.90
2018-01-21T15:02:07.305Z,6.00
2018-01-21T15:04:34.843Z,6.10
2018-01-21T15:07:02.393Z,6.20
2018-01-21T15:09:29.939Z,6.30
2018-01-21T15:11:58.254Z,6.20
2018-01-21T15:14:26.011Z,6.20
2018-01-21T15:16:53.545Z,6.20
2018-01-21T15:19:22.035Z,6.30
2018-01-21T15:21:49.558Z,6.10
2018-01-21T15:24:17.131Z,6.00
2018-01-21T15:26:45.432Z,5.90
2018-01-21T15:29:13.943Z,5.90
2018-01-21T15:31:42.435Z,5.90
2018-01-21T15:34:09.952Z,5.90
2018-01-21T15:36:37.528Z,5.80
2018-01-21T15:39:05.118Z,5.80
2018-01-21T15:41:32.673Z,5.60
2018-01-21T15:44:00.203Z,5.70
2018-01-21T15:46:27.750Z,5.60
2018-01-21T15:48:55.273Z,5.60
2018-01-21T15:51:24.515Z,5.50
2018-01-21T15:53:52.070Z,5.50
2018-01-21T15:56:20.573Z,5.50
2018-01-21T15:58:48.138Z,5.40
2018-01-21T16:01:16.801Z,5.40
2018-01-21T16:03:44.363Z,5.30
2018-01-21T16:06:11.903Z,5.30
2018-01-21T16:08:40.386Z,5.30
2018-01-21T16:11:07.965Z,5.20
2018-01-21T16:13:35.504Z,5.20
2018-01-21T16:16:03.064Z,5.10
2018-01-21T16:18:30.645Z,5.10
2018-01-21T16:20:58.180Z,5.00
2018-01-21T16:23:25.707Z,4.90
2018-01-21T16:25:53.995Z,4.80
2018-01-21T16:28:22.315Z,4.70
2018-01-21T16:30:49.849Z,4.80
2018-01-21T16:33:17.407Z,4.70
2018-01-21T16:35:44.958Z,4.80
2018-01-21T16:38:24.326Z,4.80
2018-01-21T16:40:51.853Z,4.80
2018-01-21T16:43:19.377Z,4.80
2018-01-21T16:45:47.894Z,4.70
2018-01-21T16:48:15.415Z,4.70
2018-01-21T16:50:44.938Z,4.70
2018-01-21T16:53:14.191Z,4.70
2018-01-21T16:55:41.756Z,4.70
2018-01-21T16:58:09.287Z,4.70
2018-01-21T17:00:37.765Z,4.70
2018-01-21T17:03:05.314Z,4.70
2018-01-21T17:05:33.828Z,4.70
2018-01-21T17:08:01.374Z,4.60
2018-01-21T17:10:28.914Z,4.60
2018-01-21T17:12:56.499Z,4.50
2018-01-21T17:15:24.035Z,4.60
2018-01-21T17:17:57.843Z,4.60
2018-01-21T17:20:31.885Z,4.50
2018-01-21T17:23:00.051Z,4.30
2018-01-21T17:25:28.576Z,4.40
2018-01-21T17:27:56.936Z,4.50
2018-01-21T17:30:24.463Z,4.40
2018-01-21T17:32:51.982Z,4.40
2018-01-21T17:35:19.671Z,4.40
2018-01-21T17:37:47.197Z,4.40
2018-01-21T17:40:15.530Z,4.40
2018-01-21T17:42:43.815Z,4.40
2018-01-21T17:45:11.399Z,4.50
2018-01-21T17:47:38.914Z,4.50
2018-01-21T17:50:07.482Z,4.60
2018-01-21T17:52:35.017Z,4.60
2018-01-21T17:55:03.314Z,4.70
2018-01-21T17:57:31.015Z,4.70
2018-01-21T17:59:58.537Z,4.70
2018-01-21T18:02:26.855Z,4.80
2018-01-21T18:04:54.394Z,4.80
2018-01-21T18:07:21.955Z,4.80
2018-01-21T18:09:49.493Z,4.80
2018-01-21T18:12:19.001Z,4.60
2018-01-21T18:14:46.524Z,4.60
2018-01-21T18:17:14.991Z,4.60
2018-01-21T18:19:42.573Z,4.40
2018-01-21T18:22:10.098Z,4.50
2018-01-21T18:24:37.647Z,4.40
2018-01-21T18:27:05.188Z,4.60
2018-01-21T18:29:34.718Z,4.60
2018-01-21T18:32:02.251Z,4.60
2018-01-21T18:34:29.805Z,4.70
2018-01-21T18:36:58.280Z,4.80
2018-01-21T18:39:25.808Z,4.70
2018-01-21T18:41:53.359Z,4.70
2018-01-21T18:44:20.902Z,4.70
2018-01-21T18:46:48.452Z,4.70
2018-01-21T18:49:16.005Z,4.70
2018-01-21T18:51:44.567Z,4.80
2018-01-21T18:54:12.215Z,4.80
2018-01-21T18:56:40.875Z,4.60
2018-01-21T18:59:09.169Z,4.30
2018-01-21T19:01:36.716Z,4.30
2018-01-21T19:04:04.263Z,4.10
2018-01-21T19:06:32.599Z,4.20
2018-01-21T19:09:01.083Z,4.20
2018-01-21T19:11:29.571Z,4.40
2018-01-21T19:13:57.572Z,4.40
2018-01-21T19:16:25.871Z,4.20
2018-01-21T19:18:53.533Z,4.20
2018-01-21T19:21:21.089Z,3.70
2018-01-21T19:23:48.839Z,3.60
2018-01-21T19:26:16.379Z,3.70
2018-01-21T19:28:46.651Z,3.60
2018-01-21T19:31:14.179Z,3.60
2018-01-21T19:33:41.702Z,3.40
2018-01-21T19:36:09.259Z,3.50
2018-01-21T19:38:40.710Z,3.80
2018-01-21T19:44:07.130Z,3.90
2018-01-21T19:46:34.683Z,3.90
2018-01-21T19:49:02.236Z,4.00
2018-01-21T19:51:30.704Z,4.10
2018-01-21T19:53:58.261Z,4.10
2018-01-21T19:56:25.803Z,4.10
2018-01-21T19:58:54.086Z,4.20
2018-01-21T20:01:22.412Z,4.10
2018-01-21T20:03:49.942Z,4.10
2018-01-21T20:06:17.522Z,4.10
2018-01-21T20:08:45.039Z,4.00
2018-01-21T20:11:12.562Z,4.00
2018-01-21T20:13:40.119Z,4.00
2018-01-21T20:16:07.672Z,4.00
2018-01-21T20:18:35.250Z,4.00
2018-01-21T20:21:03.535Z,4.00
2018-01-21T20:23:33.814Z,4.00
2018-01-21T20:26:01.395Z,4.00
2018-01-21T20:28:28.916Z,4.00
2018-01-21T20:30:56.467Z,4.00
2018-01-21T20:33:23.998Z,3.50
2018-01-21T20:35:51.542Z,3.50
2018-01-21T20:38:19.121Z,3.60
2018-01-21T20:40:46.684Z,3.80
2018-01-21T20:43:14.962Z,3.60
2018-01-21T20:45:42.486Z,3.60
2018-01-21T20:48:11.091Z,3.40
2018-01-21T20:50:39.376Z,3.60
2018-01-21T20:53:12.636Z,3.60
2018-01-21T20:55:40.190Z,3.10
2018-01-21T20:58:08.890Z,3.30
2018-01-21T21:00:36.406Z,3.50
2018-01-21T21:03:03.938Z,3.70
2018-01-21T21:05:31.490Z,3.80
2018-01-21T21:07:59.978Z,3.80
2018-01-21T21:10:27.526Z,3.80
2018-01-21T21:12:55.050Z,3.70
2018-01-21T21:15:22.619Z,3.70
2018-01-21T21:17:51.188Z,3.80
2018-01-21T21:20:18.688Z,3.70
2018-01-21T21:22:46.239Z,3.70
2018-01-21T21:25:13.749Z,3.80
2018-01-21T21:27:41.294Z,3.80
2018-01-21T21:30:08.820Z,3.80
2018-01-21T21:32:37.142Z,3.80
2018-01-21T21:35:04.689Z,3.80
2018-01-21T21:37:32.243Z,3.80
2018-01-21T21:40:00.767Z,3.80
2018-01-21T21:42:28.290Z,3.60
2018-01-21T21:44:55.846Z,3.60
2018-01-21T21:47:23.604Z,3.70
2018-01-21T21:49:51.157Z,3.70
2018-01-21T21:52:18.710Z,3.70
2018-01-21T21:54:46.254Z,3.80
2018-01-21T21:57:13.775Z,3.80
2018-01-21T21:59:42.298Z,3.60
2018-01-21T22:02:09.822Z,3.60
2018-01-21T22:04:37.343Z,3.80
2018-01-21T22:07:04.882Z,3.80
2018-01-21T22:09:33.354Z,3.90
2018-01-21T22:12:00.903Z,3.60
2018-01-21T22:14:29.431Z,3.70
2018-01-21T22:16:56.979Z,3.70
2018-01-21T22:19:24.508Z,3.70
2018-01-21T22:21:52.825Z,3.90
2018-01-21T22:24:20.361Z,3.80
2018-01-21T22:26:47.886Z,3.90
2018-01-21T22:29:15.443Z,4.10
2018-01-21T22:31:42.963Z,4.10
2018-01-21T22:34:10.511Z,3.80
2018-01-21T22:36:38.075Z,3.90
2018-01-21T22:39:05.595Z,3.90
2018-01-21T22:41:33.887Z,4.10
2018-01-21T22:44:01.446Z,4.00
2018-01-21T22:46:28.964Z,4.20
2018-01-21T22:48:56.510Z,4.10
2018-01-21T22:51:24.045Z,4.10
2018-01-21T22:53:51.589Z,4.00
2018-01-21T22:56:19.114Z,4.00
2018-01-21T22:58:47.434Z,3.80
2018-01-21T23:01:15.910Z,3.80
2018-01-21T23:03:43.465Z,4.00
2018-01-21T23:06:11.036Z,4.10
2018-01-21T23:08:38.558Z,4.00
2018-01-21T23:11:06.882Z,4.00
2018-01-21T23:13:34.419Z,4.00
2018-01-21T23:16:01.984Z,4.00
2018-01-21T23:18:29.507Z,4.10
2018-01-21T23:21:04.978Z,4.10
2018-01-21T23:23:32.506Z,4.10
2018-01-21T23:26:00.067Z,4.20
2018-01-21T23:28:27.595Z,4.30
2018-01-21T23:30:56.079Z,4.40
2018-01-21T23:33:23.641Z,4.30
2018-01-21T23:35:51.183Z,4.30
2018-01-21T23:38:18.729Z,4.30
2018-01-21T23:40:47.250Z,3.90
2018-01-21T23:43:14.803Z,4.00
2018-01-21T23:45:42.323Z,4.20
2018-01-21T23:48:09.868Z,4.20
2018-01-21T23:50:37.411Z,4.30
2018-01-21T23:53:04.946Z,4.10
2018-01-21T23:55:33.469Z,4.20
2018-01-21T23:58:00.992Z,4.20
